Flight Track Log - Related Links

Times and Time Zones

All times are in EDT time to prevent confusion due to time zone crossing. See the GGN7321 flight status page for this flight to view local times or setup timezone preferences in your user account.

Time Position Orientation Groundspeed Altitude Reporting Facility
EDT Latitude Longitude Course Direction KTS MPH feet Rate Location/Type
Mon 09:21:27 PM 44.8833 -63.5167 327° Northwest 140 161 1,700  Level Moncton Center
Mon 09:22:27 PM 44.9167 -63.5500 325° Northwest 130 150 3,900 1,900 Climbing Moncton Center
Mon 09:23:27 PM 44.9500 -63.5667 341° North 150 173 5,500 1,500 Climbing Moncton Center
Mon 09:24:27 PM 44.9833 -63.6167 313° West 160 184 6,900 1,400 Climbing Moncton Center
Mon 09:25:27 PM 45.0333 -63.6333 347° North 170 196 8,300 1,500 Climbing Moncton Center
Mon 09:26:27 PM 45.0667 -63.6833 313° West 180 207 9,900 1,600 Climbing Moncton Center
Mon 09:27:00 PM 45.1263 -63.7411 327° Northwest  Level FlightAware Approximate
Mon 09:27:27 PM 45.1167 -63.7167 335° Northwest 180 207 11,500  Level Moncton Center
Mon 09:28:27 PM 45.1667 -63.7500 335° Northwest 190 219 11,900 200 Climbing Moncton Center
Mon 09:29:27 PM 45.2167 -63.7833 335° Northwest 220 253 11,900  Level Moncton Center
Mon 09:30:27 PM 45.2833 -63.8333 332° Northwest 230 265 11,900  Level Moncton Center
Mon 09:31:27 PM 45.3333 -63.8667 335° Northwest 240 276 11,900  Level Moncton Center
Mon 09:32:27 PM 45.3833 -63.9167 325° Northwest 240 276 11,900  Level Moncton Center
Mon 09:33:27 PM 45.4500 -63.9667 332° Northwest 240 276 11,900  Level Moncton Center
Mon 09:34:27 PM 45.5000 -64.0167 325° Northwest 240 276 11,900 50 Level Moncton Center
Mon 09:35:27 PM 45.5500 -64.0667 325° Northwest 230 265 12,000 50 Climbing Moncton Center
Mon 09:36:27 PM 45.6167 -64.1167 332° Northwest 230 265 12,000 -350 Level Moncton Center
Mon 09:37:27 PM 45.6500 -64.1833 306° West 240 276 11,300 -900 Descending Moncton Center
Mon 09:38:27 PM 45.7000 -64.2833 306° West 250 288 10,200 -1,050 Descending Moncton Center
Mon 09:39:27 PM 45.7333 -64.3500 306° West 250 288 9,200 -1,300 Descending Moncton Center
Mon 09:40:27 PM 45.7667 -64.4167 306° West 240 276 7,600 -1,450 Descending Moncton Center
Mon 09:41:27 PM 45.8167 -64.5167 306° West 240 276 6,300 -1,000 Descending Moncton Center
Mon 09:42:27 PM 45.8500 -64.5833 306° West 220 253 5,600 -800 Descending Moncton Center
Mon 09:43:27 PM 45.8833 -64.6667 300° West 220 253 4,700 -800 Descending Moncton Center
Mon 09:44:27 PM 45.9167 -64.7333 306° West 220 253 4,000 -650 Descending Moncton Center
Mon 09:45:27 PM 45.9500 -64.8000 306° West 220 253 3,400 -350 Descending Moncton Center
Mon 09:46:27 PM 45.9833 -64.8333 325° Northwest 200 230 3,300 -500 Descending Moncton Center
Mon 09:47:27 PM 46.0167 -64.7833 46° Northeast 170 196 2,400 -850 Descending Moncton Center
Mon 09:48:27 PM 46.0500 -64.7667 19° North 150 173 1,600 -750 Descending Moncton Center
Mon 09:49:27 PM 46.0833 -64.7167 46° Northeast 130 150 900 -700 Descending Moncton Center
Mon 09:50:27 PM 46.1000 -64.6833 54° Northeast 130 150 200 -350 Descending Moncton Center
Mon 09:51:27 PM 46.1167 -64.6667 35° Northeast 50 58 200  Level Moncton Center

Login

Don't have an account? Register now (free) for customized features, flight alerts, and more!